Pays
Station

 

Conditions  météo  pour  Pereira/Matecana  -  Colombie    Colombie

  
26 °C
    
 
 

METAR pour Pereira/Matecana :

SKPE 232200Z 28004KT 9999 SCT020 26/19 A2996

 

Voici le bulletin pour Pereira/Matecana - Colombie.
 
Le bulletin a été fait il y a 28 minutes, à 22:00 UTC .
Le vent soufflait à la vitesse de 2.1 mètres par seconde de Ouest (280°).
 
La température était de 26 °C, avec un point de rosée à 19 °C.
La température ressentie était de 27 °C.
 
La pression atmosphérique était de 1015 hPa.
L'humidité relative était de 65.4%.
 
Il y avait 3 à 4/8ème de nébulosité à une hauteur de 610 mètres.
 
La visibilité globale était de supérieure à 10 kilomètres.
 

 
 
 

Pays :   A   B   C   D   E   F   G   H   I   J   K   L   M   N   O   P   Q   R   S   T   U   V   W   Y   Z

 

Partenaires :  Info Météo avec Met'info
Météo Marine avec MeteoMarine.net
Infos Site  |  Infos Légales  |  Crédits  |  Confidentialité
Contactez-nous  |  Ajouter aux favoris
© 2013-2019 METAR - Tous droits réservés